sensor_id;sensor_type;location;lat;lon;timestamp;P1;durP1;ratioP1;P2;durP2;ratioP2
56667;SDS011;42542;48.360;10.958;2023-02-15T00:02:01;43.15;;;9.00;;
56667;SDS011;42542;48.360;10.958;2023-02-15T00:05:04;19.60;;;7.80;;
56667;SDS011;42542;48.360;10.958;2023-02-15T00:08:08;22.05;;;8.65;;
56667;SDS011;42542;48.360;10.958;2023-02-15T00:11:13;33.47;;;9.50;;
56667;SDS011;42542;48.360;10.958;2023-02-15T00:14:43;29.67;;;8.52;;
56667;SDS011;42542;48.360;10.958;2023-02-15T00:17:48;27.45;;;7.93;;
56667;SDS011;42542;48.360;10.958;2023-02-15T00:20:51;29.98;;;8.38;;
56667;SDS011;42542;48.360;10.958;2023-02-15T00:24:01;47.25;;;8.43;;
56667;SDS011;42542;48.360;10.958;2023-02-15T00:27:11;24.70;;;7.70;;
56667;SDS011;42542;48.360;10.958;2023-02-15T00:30:14;27.20;;;7.38;;
56667;SDS011;42542;48.360;10.958;2023-02-15T00:33:17;27.77;;;7.28;;
56667;SDS011;42542;48.360;10.958;2023-02-15T00:36:24;26.10;;;8.03;;
56667;SDS011;42542;48.360;10.958;2023-02-15T00:39:26;26.95;;;7.93;;
56667;SDS011;42542;48.360;10.958;2023-02-15T00:42:31;22.60;;;7.80;;
56667;SDS011;42542;48.360;10.958;2023-02-15T00:45:32;21.60;;;7.93;;
56667;SDS011;42542;48.360;10.958;2023-02-15T00:48:36;25.42;;;8.60;;
56667;SDS011;42542;48.360;10.958;2023-02-15T00:51:40;35.90;;;7.78;;
56667;SDS011;42542;48.360;10.958;2023-02-15T00:54:43;27.63;;;7.93;;
56667;SDS011;42542;48.360;10.958;2023-02-15T00:57:46;20.33;;;7.57;;
56667;SDS011;42542;48.360;10.958;2023-02-15T01:00:52;20.50;;;7.72;;
56667;SDS011;42542;48.360;10.958;2023-02-15T01:03:58;25.35;;;7.60;;
56667;SDS011;42542;48.360;10.958;2023-02-15T01:07:03;39.37;;;7.90;;
56667;SDS011;42542;48.360;10.958;2023-02-15T01:10:07;26.55;;;7.90;;
56667;SDS011;42542;48.360;10.958;2023-02-15T01:13:10;22.45;;;7.63;;
56667;SDS011;42542;48.360;10.958;2023-02-15T01:16:15;20.80;;;7.40;;
56667;SDS011;42542;48.360;10.958;2023-02-15T01:19:20;23.42;;;8.00;;
56667;SDS011;42542;48.360;10.958;2023-02-15T01:22:33;21.50;;;7.68;;
56667;SDS011;42542;48.360;10.958;2023-02-15T01:25:36;25.60;;;8.43;;
56667;SDS011;42542;48.360;10.958;2023-02-15T01:28:39;19.47;;;7.77;;
56667;SDS011;42542;48.360;10.958;2023-02-15T01:31:43;21.95;;;7.88;;
56667;SDS011;42542;48.360;10.958;2023-02-15T01:34:49;31.55;;;8.63;;
56667;SDS011;42542;48.360;10.958;2023-02-15T01:37:54;23.53;;;7.47;;
56667;SDS011;42542;48.360;10.958;2023-02-15T01:40:59;37.97;;;7.93;;
56667;SDS011;42542;48.360;10.958;2023-02-15T01:48:12;22.02;;;6.88;;
56667;SDS011;42542;48.360;10.958;2023-02-15T01:51:32;21.48;;;7.28;;
56667;SDS011;42542;48.360;10.958;2023-02-15T01:54:40;20.48;;;7.20;;
56667;SDS011;42542;48.360;10.958;2023-02-15T01:57:45;18.67;;;7.22;;
56667;SDS011;42542;48.360;10.958;2023-02-15T02:00:54;32.53;;;7.93;;
56667;SDS011;42542;48.360;10.958;2023-02-15T02:07:12;25.05;;;6.95;;
56667;SDS011;42542;48.360;10.958;2023-02-15T02:10:29;23.47;;;7.10;;
56667;SDS011;42542;48.360;10.958;2023-02-15T02:13:33;24.95;;;7.30;;
56667;SDS011;42542;48.360;10.958;2023-02-15T02:31:05;18.55;;;6.85;;
56667;SDS011;42542;48.360;10.958;2023-02-15T02:41:36;23.75;;;7.25;;
56667;SDS011;42542;48.360;10.958;2023-02-15T02:44:58;34.40;;;6.90;;
56667;SDS011;42542;48.360;10.958;2023-02-15T02:48:10;25.35;;;7.85;;
56667;SDS011;42542;48.360;10.958;2023-02-15T02:51:18;23.27;;;6.97;;
56667;SDS011;42542;48.360;10.958;2023-02-15T02:54:26;19.58;;;7.40;;
56667;SDS011;42542;48.360;10.958;2023-02-15T02:57:34;20.98;;;7.43;;
56667;SDS011;42542;48.360;10.958;2023-02-15T03:00:52;26.40;;;7.32;;
56667;SDS011;42542;48.360;10.958;2023-02-15T03:04:13;20.92;;;7.70;;
56667;SDS011;42542;48.360;10.958;2023-02-15T03:07:26;22.90;;;7.10;;
56667;SDS011;42542;48.360;10.958;2023-02-15T03:10:31;23.48;;;7.65;;
56667;SDS011;42542;48.360;10.958;2023-02-15T03:13:35;29.63;;;7.28;;
56667;SDS011;42542;48.360;10.958;2023-02-15T03:16:42;19.60;;;6.93;;
56667;SDS011;42542;48.360;10.958;2023-02-15T03:19:51;19.80;;;7.30;;
56667;SDS011;42542;48.360;10.958;2023-02-15T03:23:22;21.90;;;6.70;;
56667;SDS011;42542;48.360;10.958;2023-02-15T03:26:33;17.33;;;7.30;;
56667;SDS011;42542;48.360;10.958;2023-02-15T03:29:38;29.90;;;7.05;;
56667;SDS011;42542;48.360;10.958;2023-02-15T03:32:42;20.45;;;7.20;;
56667;SDS011;42542;48.360;10.958;2023-02-15T03:35:49;18.10;;;6.55;;
56667;SDS011;42542;48.360;10.958;2023-02-15T03:39:17;18.20;;;6.60;;
56667;SDS011;42542;48.360;10.958;2023-02-15T03:42:29;20.30;;;6.97;;
56667;SDS011;42542;48.360;10.958;2023-02-15T03:45:40;18.13;;;6.72;;
56667;SDS011;42542;48.360;10.958;2023-02-15T03:49:07;16.17;;;6.57;;
56667;SDS011;42542;48.360;10.958;2023-02-15T03:52:16;19.60;;;6.95;;
56667;SDS011;42542;48.360;10.958;2023-02-15T03:55:24;19.98;;;7.60;;
56667;SDS011;42542;48.360;10.958;2023-02-15T03:58:30;20.63;;;7.35;;
56667;SDS011;42542;48.360;10.958;2023-02-15T04:02:11;21.83;;;7.22;;
56667;SDS011;42542;48.360;10.958;2023-02-15T04:05:25;18.85;;;7.18;;
56667;SDS011;42542;48.360;10.958;2023-02-15T04:08:31;37.55;;;6.55;;
56667;SDS011;42542;48.360;10.958;2023-02-15T04:11:59;18.07;;;6.47;;
56667;SDS011;42542;48.360;10.958;2023-02-15T04:15:03;17.75;;;6.70;;
56667;SDS011;42542;48.360;10.958;2023-02-15T04:18:26;26.60;;;7.72;;
56667;SDS011;42542;48.360;10.958;2023-02-15T04:21:46;26.97;;;7.50;;
56667;SDS011;42542;48.360;10.958;2023-02-15T04:25:10;22.33;;;7.35;;
56667;SDS011;42542;48.360;10.958;2023-02-15T04:28:16;28.65;;;7.03;;
56667;SDS011;42542;48.360;10.958;2023-02-15T04:31:19;20.23;;;7.40;;
56667;SDS011;42542;48.360;10.958;2023-02-15T04:34:23;21.95;;;7.47;;
56667;SDS011;42542;48.360;10.958;2023-02-15T04:37:28;19.63;;;7.38;;
56667;SDS011;42542;48.360;10.958;2023-02-15T04:40:31;19.95;;;7.38;;
56667;SDS011;42542;48.360;10.958;2023-02-15T04:43:34;19.50;;;6.53;;
56667;SDS011;42542;48.360;10.958;2023-02-15T04:46:35;18.08;;;6.63;;
56667;SDS011;42542;48.360;10.958;2023-02-15T04:49:40;20.98;;;6.60;;
56667;SDS011;42542;48.360;10.958;2023-02-15T04:52:47;20.37;;;6.40;;
56667;SDS011;42542;48.360;10.958;2023-02-15T04:55:53;17.58;;;6.10;;
56667;SDS011;42542;48.360;10.958;2023-02-15T04:58:58;17.75;;;6.55;;
56667;SDS011;42542;48.360;10.958;2023-02-15T05:02:01;17.27;;;6.38;;
56667;SDS011;42542;48.360;10.958;2023-02-15T05:05:03;18.67;;;5.55;;
56667;SDS011;42542;48.360;10.958;2023-02-15T05:08:12;20.40;;;6.63;;
56667;SDS011;42542;48.360;10.958;2023-02-15T05:11:14;20.02;;;6.78;;
56667;SDS011;42542;48.360;10.958;2023-02-15T05:14:16;22.73;;;6.70;;
56667;SDS011;42542;48.360;10.958;2023-02-15T05:17:18;18.40;;;6.55;;
56667;SDS011;42542;48.360;10.958;2023-02-15T05:20:23;19.77;;;6.25;;
56667;SDS011;42542;48.360;10.958;2023-02-15T05:23:35;20.93;;;6.07;;
56667;SDS011;42542;48.360;10.958;2023-02-15T05:26:42;17.25;;;5.82;;
56667;SDS011;42542;48.360;10.958;2023-02-15T05:30:03;28.30;;;6.35;;
56667;SDS011;42542;48.360;10.958;2023-02-15T05:33:06;15.88;;;5.85;;
56667;SDS011;42542;48.360;10.958;2023-02-15T05:36:10;18.48;;;6.22;;
56667;SDS011;42542;48.360;10.958;2023-02-15T05:39:14;20.63;;;6.75;;
56667;SDS011;42542;48.360;10.958;2023-02-15T05:42:17;17.88;;;6.78;;
56667;SDS011;42542;48.360;10.958;2023-02-15T05:45:20;21.83;;;6.80;;
56667;SDS011;42542;48.360;10.958;2023-02-15T05:48:24;19.17;;;7.13;;
56667;SDS011;42542;48.360;10.958;2023-02-15T05:51:27;22.08;;;7.47;;
56667;SDS011;42542;48.360;10.958;2023-02-15T05:54:31;22.17;;;7.10;;
56667;SDS011;42542;48.360;10.958;2023-02-15T05:57:34;21.42;;;7.85;;
56667;SDS011;42542;48.360;10.958;2023-02-15T06:00:38;29.85;;;7.50;;
56667;SDS011;42542;48.360;10.958;2023-02-15T06:03:44;27.27;;;7.45;;
56667;SDS011;42542;48.360;10.958;2023-02-15T06:06:52;23.10;;;7.30;;
56667;SDS011;42542;48.360;10.958;2023-02-15T06:09:57;27.85;;;7.32;;
56667;SDS011;42542;48.360;10.958;2023-02-15T06:13:01;21.23;;;7.90;;
56667;SDS011;42542;48.360;10.958;2023-02-15T06:16:03;27.47;;;8.20;;
56667;SDS011;42542;48.360;10.958;2023-02-15T06:19:09;26.55;;;7.78;;
56667;SDS011;42542;48.360;10.958;2023-02-15T06:22:12;25.40;;;7.28;;
56667;SDS011;42542;48.360;10.958;2023-02-15T06:25:15;17.93;;;6.30;;
56667;SDS011;42542;48.360;10.958;2023-02-15T06:28:22;17.45;;;7.50;;
56667;SDS011;42542;48.360;10.958;2023-02-15T06:31:27;24.33;;;8.82;;
56667;SDS011;42542;48.360;10.958;2023-02-15T06:34:34;19.27;;;7.95;;
56667;SDS011;42542;48.360;10.958;2023-02-15T06:37:38;20.10;;;8.32;;
56667;SDS011;42542;48.360;10.958;2023-02-15T06:40:40;19.90;;;7.50;;
56667;SDS011;42542;48.360;10.958;2023-02-15T06:43:43;20.30;;;7.45;;
56667;SDS011;42542;48.360;10.958;2023-02-15T06:46:46;20.60;;;7.33;;
56667;SDS011;42542;48.360;10.958;2023-02-15T06:49:53;27.05;;;7.72;;
56667;SDS011;42542;48.360;10.958;2023-02-15T06:52:58;26.42;;;10.30;;
56667;SDS011;42542;48.360;10.958;2023-02-15T06:56:05;23.00;;;8.17;;
56667;SDS011;42542;48.360;10.958;2023-02-15T06:59:11;19.92;;;7.57;;
56667;SDS011;42542;48.360;10.958;2023-02-15T07:02:14;18.58;;;7.82;;
56667;SDS011;42542;48.360;10.958;2023-02-15T07:05:18;17.73;;;7.65;;
56667;SDS011;42542;48.360;10.958;2023-02-15T07:08:22;26.38;;;9.60;;
56667;SDS011;42542;48.360;10.958;2023-02-15T07:11:26;21.17;;;7.82;;
56667;SDS011;42542;48.360;10.958;2023-02-15T07:14:50;18.85;;;7.43;;
56667;SDS011;42542;48.360;10.958;2023-02-15T07:17:55;23.00;;;8.17;;
56667;SDS011;42542;48.360;10.958;2023-02-15T07:21:03;19.98;;;7.55;;
56667;SDS011;42542;48.360;10.958;2023-02-15T07:24:09;18.40;;;7.70;;
56667;SDS011;42542;48.360;10.958;2023-02-15T07:27:15;20.30;;;7.40;;
56667;SDS011;42542;48.360;10.958;2023-02-15T07:30:19;19.42;;;7.70;;
56667;SDS011;42542;48.360;10.958;2023-02-15T07:33:22;23.17;;;9.68;;
56667;SDS011;42542;48.360;10.958;2023-02-15T07:36:29;20.25;;;7.93;;
56667;SDS011;42542;48.360;10.958;2023-02-15T07:39:45;19.75;;;8.27;;
56667;SDS011;42542;48.360;10.958;2023-02-15T07:42:50;22.52;;;8.75;;
56667;SDS011;42542;48.360;10.958;2023-02-15T07:46:02;26.00;;;8.80;;
56667;SDS011;42542;48.360;10.958;2023-02-15T07:49:08;22.93;;;7.63;;
56667;SDS011;42542;48.360;10.958;2023-02-15T07:52:20;25.08;;;8.93;;
56667;SDS011;42542;48.360;10.958;2023-02-15T07:55:23;36.63;;;11.15;;
56667;SDS011;42542;48.360;10.958;2023-02-15T07:58:27;26.77;;;8.13;;
56667;SDS011;42542;48.360;10.958;2023-02-15T08:01:50;22.45;;;8.25;;
56667;SDS011;42542;48.360;10.958;2023-02-15T08:05:01;19.33;;;7.70;;
56667;SDS011;42542;48.360;10.958;2023-02-15T08:08:17;29.90;;;10.93;;
56667;SDS011;42542;48.360;10.958;2023-02-15T08:11:38;30.77;;;11.80;;
56667;SDS011;42542;48.360;10.958;2023-02-15T08:14:41;18.40;;;7.40;;
56667;SDS011;42542;48.360;10.958;2023-02-15T08:17:44;34.22;;;8.07;;
56667;SDS011;42542;48.360;10.958;2023-02-15T08:20:49;28.83;;;7.23;;
56667;SDS011;42542;48.360;10.958;2023-02-15T08:23:53;20.85;;;7.07;;
56667;SDS011;42542;48.360;10.958;2023-02-15T08:26:58;21.60;;;8.00;;
56667;SDS011;42542;48.360;10.958;2023-02-15T08:30:11;29.60;;;11.67;;
56667;SDS011;42542;48.360;10.958;2023-02-15T08:33:25;24.92;;;8.82;;
56667;SDS011;42542;48.360;10.958;2023-02-15T08:36:32;21.45;;;8.55;;
56667;SDS011;42542;48.360;10.958;2023-02-15T08:39:34;24.10;;;8.77;;
56667;SDS011;42542;48.360;10.958;2023-02-15T08:42:43;23.60;;;10.73;;
56667;SDS011;42542;48.360;10.958;2023-02-15T08:45:46;21.55;;;8.35;;
56667;SDS011;42542;48.360;10.958;2023-02-15T08:48:52;38.50;;;8.25;;
56667;SDS011;42542;48.360;10.958;2023-02-15T08:51:54;19.93;;;8.23;;
56667;SDS011;42542;48.360;10.958;2023-02-15T08:55:05;20.13;;;8.10;;
56667;SDS011;42542;48.360;10.958;2023-02-15T08:58:07;19.40;;;8.13;;
56667;SDS011;42542;48.360;10.958;2023-02-15T09:01:12;39.67;;;8.77;;
56667;SDS011;42542;48.360;10.958;2023-02-15T09:04:23;25.58;;;8.73;;
56667;SDS011;42542;48.360;10.958;2023-02-15T09:07:29;22.92;;;9.32;;
56667;SDS011;42542;48.360;10.958;2023-02-15T09:10:39;23.15;;;9.52;;
56667;SDS011;42542;48.360;10.958;2023-02-15T09:13:43;28.25;;;10.20;;
56667;SDS011;42542;48.360;10.958;2023-02-15T09:17:01;22.25;;;9.18;;
56667;SDS011;42542;48.360;10.958;2023-02-15T09:20:09;45.58;;;16.05;;
56667;SDS011;42542;48.360;10.958;2023-02-15T09:23:17;30.03;;;11.20;;
56667;SDS011;42542;48.360;10.958;2023-02-15T09:26:31;26.45;;;10.15;;
56667;SDS011;42542;48.360;10.958;2023-02-15T09:29:48;29.20;;;11.60;;
56667;SDS011;42542;48.360;10.958;2023-02-15T09:32:52;29.63;;;9.90;;
56667;SDS011;42542;48.360;10.958;2023-02-15T09:36:02;27.10;;;10.20;;
56667;SDS011;42542;48.360;10.958;2023-02-15T09:42:40;28.70;;;10.27;;
56667;SDS011;42542;48.360;10.958;2023-02-15T09:45:50;23.75;;;9.38;;
56667;SDS011;42542;48.360;10.958;2023-02-15T09:53:10;20.73;;;8.10;;
56667;SDS011;42542;48.360;10.958;2023-02-15T09:56:42;22.83;;;9.67;;
56667;SDS011;42542;48.360;10.958;2023-02-15T10:00:00;26.88;;;10.50;;
56667;SDS011;42542;48.360;10.958;2023-02-15T10:07:00;23.47;;;8.73;;
56667;SDS011;42542;48.360;10.958;2023-02-15T10:13:57;22.27;;;8.90;;
56667;SDS011;42542;48.360;10.958;2023-02-15T10:27:50;23.73;;;10.45;;
56667;SDS011;42542;48.360;10.958;2023-02-15T10:34:37;26.25;;;11.13;;
56667;SDS011;42542;48.360;10.958;2023-02-15T10:37:44;23.20;;;9.55;;
56667;SDS011;42542;48.360;10.958;2023-02-15T10:47:48;24.63;;;9.60;;
56667;SDS011;42542;48.360;10.958;2023-02-15T10:50:59;25.25;;;10.30;;
56667;SDS011;42542;48.360;10.958;2023-02-15T10:54:32;25.95;;;9.90;;
56667;SDS011;42542;48.360;10.958;2023-02-15T11:01:12;21.73;;;9.38;;
56667;SDS011;42542;48.360;10.958;2023-02-15T11:04:51;23.97;;;9.77;;
56667;SDS011;42542;48.360;10.958;2023-02-15T11:07:54;25.33;;;10.55;;
56667;SDS011;42542;48.360;10.958;2023-02-15T11:11:02;25.77;;;10.50;;
56667;SDS011;42542;48.360;10.958;2023-02-15T11:14:15;26.10;;;11.17;;
56667;SDS011;42542;48.360;10.958;2023-02-15T11:17:24;26.00;;;10.50;;
56667;SDS011;42542;48.360;10.958;2023-02-15T11:20:36;28.00;;;11.57;;
56667;SDS011;42542;48.360;10.958;2023-02-15T11:23:45;27.90;;;10.27;;
56667;SDS011;42542;48.360;10.958;2023-02-15T11:27:49;28.10;;;11.90;;
56667;SDS011;42542;48.360;10.958;2023-02-15T11:30:25;25.23;;;11.25;;
56667;SDS011;42542;48.360;10.958;2023-02-15T11:33:35;26.90;;;11.40;;
56667;SDS011;42542;48.360;10.958;2023-02-15T11:36:43;24.77;;;11.13;;
56667;SDS011;42542;48.360;10.958;2023-02-15T11:39:46;28.17;;;11.35;;
56667;SDS011;42542;48.360;10.958;2023-02-15T11:42:55;31.85;;;13.10;;
56667;SDS011;42542;48.360;10.958;2023-02-15T11:46:00;29.07;;;12.03;;
56667;SDS011;42542;48.360;10.958;2023-02-15T11:49:07;24.10;;;10.82;;
56667;SDS011;42542;48.360;10.958;2023-02-15T11:52:20;26.33;;;11.23;;
56667;SDS011;42542;48.360;10.958;2023-02-15T11:55:22;25.80;;;11.77;;
56667;SDS011;42542;48.360;10.958;2023-02-15T11:58:31;36.28;;;14.05;;
56667;SDS011;42542;48.360;10.958;2023-02-15T12:01:41;26.83;;;12.05;;
56667;SDS011;42542;48.360;10.958;2023-02-15T12:05:09;30.60;;;13.15;;
56667;SDS011;42542;48.360;10.958;2023-02-15T12:08:18;28.33;;;11.97;;
56667;SDS011;42542;48.360;10.958;2023-02-15T12:11:26;26.75;;;11.93;;
56667;SDS011;42542;48.360;10.958;2023-02-15T12:14:46;27.73;;;12.27;;
56667;SDS011;42542;48.360;10.958;2023-02-15T12:17:50;29.87;;;13.27;;
56667;SDS011;42542;48.360;10.958;2023-02-15T12:20:57;27.98;;;11.68;;
56667;SDS011;42542;48.360;10.958;2023-02-15T12:27:38;27.25;;;12.13;;
56667;SDS011;42542;48.360;10.958;2023-02-15T12:30:44;30.23;;;12.27;;
56667;SDS011;42542;48.360;10.958;2023-02-15T12:33:47;25.42;;;11.68;;
56667;SDS011;42542;48.360;10.958;2023-02-15T12:36:54;26.73;;;12.25;;
56667;SDS011;42542;48.360;10.958;2023-02-15T12:40:01;26.83;;;12.53;;
56667;SDS011;42542;48.360;10.958;2023-02-15T12:43:27;27.42;;;12.18;;
56667;SDS011;42542;48.360;10.958;2023-02-15T12:46:36;27.90;;;12.43;;
56667;SDS011;42542;48.360;10.958;2023-02-15T12:49:39;25.97;;;11.53;;
56667;SDS011;42542;48.360;10.958;2023-02-15T12:52:48;28.23;;;12.82;;
56667;SDS011;42542;48.360;10.958;2023-02-15T12:55:54;29.15;;;12.57;;
56667;SDS011;42542;48.360;10.958;2023-02-15T12:59:04;26.20;;;12.10;;
56667;SDS011;42542;48.360;10.958;2023-02-15T13:02:09;29.92;;;12.23;;
56667;SDS011;42542;48.360;10.958;2023-02-15T13:11:49;29.30;;;11.80;;
56667;SDS011;42542;48.360;10.958;2023-02-15T13:14:52;27.20;;;12.38;;
56667;SDS011;42542;48.360;10.958;2023-02-15T13:17:57;29.50;;;12.60;;
56667;SDS011;42542;48.360;10.958;2023-02-15T13:21:06;28.07;;;12.30;;
56667;SDS011;42542;48.360;10.958;2023-02-15T13:24:16;27.67;;;11.63;;
56667;SDS011;42542;48.360;10.958;2023-02-15T13:27:24;24.77;;;11.32;;
56667;SDS011;42542;48.360;10.958;2023-02-15T13:30:34;26.35;;;11.95;;
56667;SDS011;42542;48.360;10.958;2023-02-15T13:33:40;31.55;;;11.95;;
56667;SDS011;42542;48.360;10.958;2023-02-15T13:36:58;27.50;;;12.10;;
56667;SDS011;42542;48.360;10.958;2023-02-15T13:40:15;29.13;;;11.85;;
56667;SDS011;42542;48.360;10.958;2023-02-15T13:46:50;25.30;;;11.50;;
56667;SDS011;42542;48.360;10.958;2023-02-15T13:50:05;30.65;;;12.05;;
56667;SDS011;42542;48.360;10.958;2023-02-15T13:53:31;27.07;;;13.87;;
56667;SDS011;42542;48.360;10.958;2023-02-15T14:00:21;27.27;;;12.82;;
56667;SDS011;42542;48.360;10.958;2023-02-15T14:29:57;27.83;;;12.90;;
56667;SDS011;42542;48.360;10.958;2023-02-15T14:33:08;27.92;;;12.90;;
56667;SDS011;42542;48.360;10.958;2023-02-15T14:36:35;28.45;;;13.25;;
56667;SDS011;42542;48.360;10.958;2023-02-15T14:46:30;27.85;;;12.75;;
56667;SDS011;42542;48.360;10.958;2023-02-15T14:49:49;26.53;;;11.73;;
56667;SDS011;42542;48.360;10.958;2023-02-15T14:56:32;29.00;;;12.98;;
56667;SDS011;42542;48.360;10.958;2023-02-15T15:02:46;32.42;;;12.90;;
56667;SDS011;42542;48.360;10.958;2023-02-15T15:05:51;25.23;;;12.45;;
56667;SDS011;42542;48.360;10.958;2023-02-15T15:08:58;27.60;;;13.15;;
56667;SDS011;42542;48.360;10.958;2023-02-15T15:15:45;25.70;;;12.60;;
56667;SDS011;42542;48.360;10.958;2023-02-15T15:18:48;27.65;;;12.77;;
56667;SDS011;42542;48.360;10.958;2023-02-15T15:21:51;29.20;;;12.73;;
56667;SDS011;42542;48.360;10.958;2023-02-15T15:25:00;28.60;;;13.32;;
56667;SDS011;42542;48.360;10.958;2023-02-15T15:28:07;28.55;;;12.88;;
56667;SDS011;42542;48.360;10.958;2023-02-15T15:31:15;27.70;;;13.07;;
56667;SDS011;42542;48.360;10.958;2023-02-15T15:34:38;27.63;;;12.52;;
56667;SDS011;42542;48.360;10.958;2023-02-15T15:41:41;27.92;;;12.82;;
56667;SDS011;42542;48.360;10.958;2023-02-15T15:48:37;27.58;;;12.52;;
56667;SDS011;42542;48.360;10.958;2023-02-15T15:51:42;24.00;;;11.75;;
56667;SDS011;42542;48.360;10.958;2023-02-15T15:54:51;25.97;;;12.23;;
56667;SDS011;42542;48.360;10.958;2023-02-15T15:57:57;26.27;;;12.70;;
56667;SDS011;42542;48.360;10.958;2023-02-15T16:01:10;26.00;;;12.40;;
56667;SDS011;42542;48.360;10.958;2023-02-15T16:04:31;28.30;;;12.80;;
56667;SDS011;42542;48.360;10.958;2023-02-15T16:07:35;29.27;;;12.88;;
56667;SDS011;42542;48.360;10.958;2023-02-15T16:10:36;27.33;;;13.05;;
56667;SDS011;42542;48.360;10.958;2023-02-15T16:13:43;29.23;;;13.00;;
56667;SDS011;42542;48.360;10.958;2023-02-15T16:16:46;27.98;;;12.68;;
56667;SDS011;42542;48.360;10.958;2023-02-15T16:19:59;28.33;;;12.63;;
56667;SDS011;42542;48.360;10.958;2023-02-15T16:23:12;25.83;;;12.75;;
56667;SDS011;42542;48.360;10.958;2023-02-15T16:29:50;29.60;;;12.93;;
56667;SDS011;42542;48.360;10.958;2023-02-15T16:32:53;30.10;;;12.65;;
56667;SDS011;42542;48.360;10.958;2023-02-15T16:35:57;28.20;;;12.97;;
56667;SDS011;42542;48.360;10.958;2023-02-15T16:39:07;28.95;;;13.45;;
56667;SDS011;42542;48.360;10.958;2023-02-15T16:42:11;28.15;;;12.88;;
56667;SDS011;42542;48.360;10.958;2023-02-15T16:45:17;34.33;;;12.98;;
56667;SDS011;42542;48.360;10.958;2023-02-15T16:48:23;29.25;;;13.25;;
56667;SDS011;42542;48.360;10.958;2023-02-15T16:51:30;27.73;;;12.95;;
56667;SDS011;42542;48.360;10.958;2023-02-15T16:54:34;31.10;;;12.85;;
56667;SDS011;42542;48.360;10.958;2023-02-15T16:57:37;28.27;;;12.77;;
56667;SDS011;42542;48.360;10.958;2023-02-15T17:00:43;30.52;;;13.85;;
56667;SDS011;42542;48.360;10.958;2023-02-15T17:03:47;28.88;;;12.80;;
56667;SDS011;42542;48.360;10.958;2023-02-15T17:10:32;26.70;;;12.55;;
56667;SDS011;42542;48.360;10.958;2023-02-15T17:13:37;29.63;;;13.20;;
56667;SDS011;42542;48.360;10.958;2023-02-15T17:19:51;29.27;;;12.95;;
56667;SDS011;42542;48.360;10.958;2023-02-15T17:22:56;32.40;;;14.25;;
56667;SDS011;42542;48.360;10.958;2023-02-15T17:25:59;30.35;;;13.27;;
56667;SDS011;42542;48.360;10.958;2023-02-15T17:32:31;28.90;;;13.60;;
56667;SDS011;42542;48.360;10.958;2023-02-15T17:35:34;28.02;;;12.07;;
56667;SDS011;42542;48.360;10.958;2023-02-15T17:38:39;26.77;;;12.40;;
56667;SDS011;42542;48.360;10.958;2023-02-15T17:41:41;31.17;;;13.20;;
56667;SDS011;42542;48.360;10.958;2023-02-15T17:44:43;29.33;;;12.95;;
56667;SDS011;42542;48.360;10.958;2023-02-15T17:47:46;33.75;;;14.13;;
56667;SDS011;42542;48.360;10.958;2023-02-15T17:50:48;54.50;;;22.77;;
56667;SDS011;42542;48.360;10.958;2023-02-15T17:53:50;48.78;;;22.08;;
56667;SDS011;42542;48.360;10.958;2023-02-15T17:57:14;45.97;;;20.50;;
56667;SDS011;42542;48.360;10.958;2023-02-15T18:00:16;38.53;;;17.23;;
56667;SDS011;42542;48.360;10.958;2023-02-15T18:03:41;41.05;;;17.10;;
56667;SDS011;42542;48.360;10.958;2023-02-15T18:07:04;42.35;;;17.83;;
56667;SDS011;42542;48.360;10.958;2023-02-15T18:10:24;43.30;;;18.60;;
56667;SDS011;42542;48.360;10.958;2023-02-15T18:13:44;42.85;;;19.67;;
56667;SDS011;42542;48.360;10.958;2023-02-15T18:16:46;44.13;;;17.95;;
56667;SDS011;42542;48.360;10.958;2023-02-15T18:19:48;45.50;;;19.63;;
56667;SDS011;42542;48.360;10.958;2023-02-15T18:22:50;42.45;;;17.48;;
56667;SDS011;42542;48.360;10.958;2023-02-15T18:25:52;36.92;;;15.63;;
56667;SDS011;42542;48.360;10.958;2023-02-15T18:28:53;42.00;;;17.42;;
56667;SDS011;42542;48.360;10.958;2023-02-15T18:31:55;39.80;;;16.27;;
56667;SDS011;42542;48.360;10.958;2023-02-15T18:34:58;32.67;;;14.23;;
56667;SDS011;42542;48.360;10.958;2023-02-15T18:37:59;36.20;;;14.48;;
56667;SDS011;42542;48.360;10.958;2023-02-15T18:41:04;36.20;;;15.03;;
56667;SDS011;42542;48.360;10.958;2023-02-15T18:44:10;34.08;;;14.63;;
56667;SDS011;42542;48.360;10.958;2023-02-15T18:47:12;37.67;;;15.95;;
56667;SDS011;42542;48.360;10.958;2023-02-15T18:50:14;35.63;;;14.75;;
56667;SDS011;42542;48.360;10.958;2023-02-15T18:53:19;35.40;;;14.35;;
56667;SDS011;42542;48.360;10.958;2023-02-15T18:56:21;37.60;;;14.32;;
56667;SDS011;42542;48.360;10.958;2023-02-15T18:59:24;38.22;;;15.07;;
56667;SDS011;42542;48.360;10.958;2023-02-15T19:02:27;36.50;;;14.67;;
56667;SDS011;42542;48.360;10.958;2023-02-15T19:05:29;41.38;;;16.58;;
56667;SDS011;42542;48.360;10.958;2023-02-15T19:08:32;43.60;;;17.77;;
56667;SDS011;42542;48.360;10.958;2023-02-15T19:11:33;46.43;;;18.53;;
56667;SDS011;42542;48.360;10.958;2023-02-15T19:14:35;44.63;;;16.35;;
56667;SDS011;42542;48.360;10.958;2023-02-15T19:17:37;45.80;;;18.08;;
56667;SDS011;42542;48.360;10.958;2023-02-15T19:20:40;49.30;;;18.58;;
56667;SDS011;42542;48.360;10.958;2023-02-15T19:23:48;43.03;;;17.58;;
56667;SDS011;42542;48.360;10.958;2023-02-15T19:26:55;40.97;;;16.77;;
56667;SDS011;42542;48.360;10.958;2023-02-15T19:29:57;42.80;;;16.77;;
56667;SDS011;42542;48.360;10.958;2023-02-15T19:33:00;40.07;;;16.17;;
56667;SDS011;42542;48.360;10.958;2023-02-15T19:36:03;47.40;;;19.92;;
56667;SDS011;42542;48.360;10.958;2023-02-15T19:39:08;43.28;;;16.05;;
56667;SDS011;42542;48.360;10.958;2023-02-15T19:42:24;51.17;;;19.43;;
56667;SDS011;42542;48.360;10.958;2023-02-15T19:45:27;44.78;;;17.63;;
56667;SDS011;42542;48.360;10.958;2023-02-15T19:48:30;54.67;;;20.52;;
56667;SDS011;42542;48.360;10.958;2023-02-15T19:51:32;82.30;;;23.85;;
56667;SDS011;42542;48.360;10.958;2023-02-15T19:54:34;68.82;;;21.02;;
56667;SDS011;42542;48.360;10.958;2023-02-15T19:57:36;51.75;;;19.83;;
56667;SDS011;42542;48.360;10.958;2023-02-15T20:00:37;44.58;;;16.48;;
56667;SDS011;42542;48.360;10.958;2023-02-15T20:03:39;44.17;;;17.33;;
56667;SDS011;42542;48.360;10.958;2023-02-15T20:06:41;45.50;;;17.10;;
56667;SDS011;42542;48.360;10.958;2023-02-15T20:09:44;49.70;;;19.65;;
56667;SDS011;42542;48.360;10.958;2023-02-15T20:12:46;52.77;;;20.33;;
56667;SDS011;42542;48.360;10.958;2023-02-15T20:15:48;46.67;;;19.17;;
56667;SDS011;42542;48.360;10.958;2023-02-15T20:18:51;44.30;;;17.75;;
56667;SDS011;42542;48.360;10.958;2023-02-15T20:21:53;40.08;;;16.60;;
56667;SDS011;42542;48.360;10.958;2023-02-15T20:24:56;38.58;;;15.20;;
56667;SDS011;42542;48.360;10.958;2023-02-15T20:27:57;39.28;;;16.25;;
56667;SDS011;42542;48.360;10.958;2023-02-15T20:31:00;41.65;;;16.83;;
56667;SDS011;42542;48.360;10.958;2023-02-15T20:34:02;35.83;;;15.67;;
56667;SDS011;42542;48.360;10.958;2023-02-15T20:37:04;48.58;;;17.45;;
56667;SDS011;42542;48.360;10.958;2023-02-15T20:40:16;40.22;;;16.48;;
56667;SDS011;42542;48.360;10.958;2023-02-15T20:43:20;41.20;;;14.97;;